Terminal Aerodrome Forecast
Issued by NWS

Current Version | Previous Version | Text Only | Print | Product List | Glossary Off
Versions: 1 2 3 4 5 6 7 8 9 10 11 12 13 14 15 16 17 18 19 20 21 22 23 24 25 26 27 28 29 30 31 32 33 34 35 36 37 38 39 40 41 42 43

000
FTUS42 KJAX 110605 AAU
TAFCRG
TAF AMD
KCRG 110605Z 1106/1206 24006KT P6SM VCSH BKN040 BKN080 BKN200
     FM111700 30008KT P6SM VCTS BKN040CB BKN080 PROB30 1117/1119
      VRB15G25KT 3SM TSRA BKN025CB
     FM111900 14009KT P6SM VCTS BKN040CB BKN080 PROB30 1119/1123
      VRB15G25KT 3SM TSRA BKN025CB
     FM120000 19006KT P6SM SCT040 SCT080 BKN200=

USA.gov is the U.S. government's official web portal to all federal, state and local government web resources and services.